sensor_id;sensor_type;location;lat;lon;timestamp;P1;durP1;ratioP1;P2;durP2;ratioP2
12788;SDS011;6458;42.710;23.192;2022-10-10T00:02:06;20.60;;;14.40;;
12788;SDS011;6458;42.710;23.192;2022-10-10T00:04:32;15.93;;;13.93;;
12788;SDS011;6458;42.710;23.192;2022-10-10T00:06:59;18.80;;;14.20;;
12788;SDS011;6458;42.710;23.192;2022-10-10T00:09:26;18.23;;;15.97;;
12788;SDS011;6458;42.710;23.192;2022-10-10T00:11:52;21.87;;;14.80;;
12788;SDS011;6458;42.710;23.192;2022-10-10T00:14:20;20.70;;;15.43;;
12788;SDS011;6458;42.710;23.192;2022-10-10T00:16:47;18.50;;;15.57;;
12788;SDS011;6458;42.710;23.192;2022-10-10T00:19:14;19.87;;;16.33;;
12788;SDS011;6458;42.710;23.192;2022-10-10T00:21:41;18.27;;;15.83;;
12788;SDS011;6458;42.710;23.192;2022-10-10T00:24:08;18.47;;;15.33;;
12788;SDS011;6458;42.710;23.192;2022-10-10T00:26:35;20.73;;;14.40;;
12788;SDS011;6458;42.710;23.192;2022-10-10T00:29:01;20.60;;;17.10;;
12788;SDS011;6458;42.710;23.192;2022-10-10T00:31:30;20.83;;;16.50;;
12788;SDS011;6458;42.710;23.192;2022-10-10T00:33:56;21.90;;;16.83;;
12788;SDS011;6458;42.710;23.192;2022-10-10T00:36:23;22.80;;;18.07;;
12788;SDS011;6458;42.710;23.192;2022-10-10T00:38:50;25.10;;;18.20;;
12788;SDS011;6458;42.710;23.192;2022-10-10T00:41:16;22.97;;;18.27;;
12788;SDS011;6458;42.710;23.192;2022-10-10T00:46:25;26.30;;;20.10;;
12788;SDS011;6458;42.710;23.192;2022-10-10T00:48:53;24.83;;;18.83;;
12788;SDS011;6458;42.710;23.192;2022-10-10T00:51:20;21.67;;;17.33;;
12788;SDS011;6458;42.710;23.192;2022-10-10T00:53:46;23.03;;;18.00;;
12788;SDS011;6458;42.710;23.192;2022-10-10T00:56:14;24.07;;;19.90;;
12788;SDS011;6458;42.710;23.192;2022-10-10T00:58:43;20.97;;;18.10;;
12788;SDS011;6458;42.710;23.192;2022-10-10T01:01:11;17.43;;;15.43;;
12788;SDS011;6458;42.710;23.192;2022-10-10T01:03:38;24.23;;;15.87;;
12788;SDS011;6458;42.710;23.192;2022-10-10T01:06:06;18.53;;;15.20;;
12788;SDS011;6458;42.710;23.192;2022-10-10T01:08:33;20.03;;;15.40;;
12788;SDS011;6458;42.710;23.192;2022-10-10T01:11:04;19.60;;;15.23;;
12788;SDS011;6458;42.710;23.192;2022-10-10T01:13:34;19.53;;;13.90;;
12788;SDS011;6458;42.710;23.192;2022-10-10T01:16:03;20.87;;;14.70;;
12788;SDS011;6458;42.710;23.192;2022-10-10T01:18:34;19.33;;;14.67;;
12788;SDS011;6458;42.710;23.192;2022-10-10T01:21:03;21.57;;;15.57;;
12788;SDS011;6458;42.710;23.192;2022-10-10T01:23:53;20.83;;;14.57;;
12788;SDS011;6458;42.710;23.192;2022-10-10T01:26:29;20.10;;;14.53;;
12788;SDS011;6458;42.710;23.192;2022-10-10T01:29:03;20.17;;;13.73;;
12788;SDS011;6458;42.710;23.192;2022-10-10T01:31:33;19.10;;;15.60;;
12788;SDS011;6458;42.710;23.192;2022-10-10T01:34:02;29.17;;;19.50;;
12788;SDS011;6458;42.710;23.192;2022-10-10T01:36:31;31.13;;;21.37;;
12788;SDS011;6458;42.710;23.192;2022-10-10T01:39:02;24.30;;;18.73;;
12788;SDS011;6458;42.710;23.192;2022-10-10T01:41:32;27.93;;;18.87;;
12788;SDS011;6458;42.710;23.192;2022-10-10T01:44:03;22.07;;;17.20;;
12788;SDS011;6458;42.710;23.192;2022-10-10T01:46:31;21.33;;;15.77;;
12788;SDS011;6458;42.710;23.192;2022-10-10T01:48:58;23.00;;;17.83;;
12788;SDS011;6458;42.710;23.192;2022-10-10T01:51:29;24.77;;;17.73;;
12788;SDS011;6458;42.710;23.192;2022-10-10T01:54:01;20.23;;;16.73;;
12788;SDS011;6458;42.710;23.192;2022-10-10T01:56:33;25.70;;;18.13;;
12788;SDS011;6458;42.710;23.192;2022-10-10T01:59:06;25.40;;;17.73;;
12788;SDS011;6458;42.710;23.192;2022-10-10T02:01:34;28.90;;;20.33;;
12788;SDS011;6458;42.710;23.192;2022-10-10T02:04:04;26.07;;;21.13;;
12788;SDS011;6458;42.710;23.192;2022-10-10T02:06:33;26.23;;;19.80;;
12788;SDS011;6458;42.710;23.192;2022-10-10T02:09:03;23.77;;;18.80;;
12788;SDS011;6458;42.710;23.192;2022-10-10T02:11:30;22.23;;;18.53;;
12788;SDS011;6458;42.710;23.192;2022-10-10T02:13:59;21.40;;;17.60;;
12788;SDS011;6458;42.710;23.192;2022-10-10T02:16:31;21.90;;;17.53;;
12788;SDS011;6458;42.710;23.192;2022-10-10T02:18:59;22.30;;;17.20;;
12788;SDS011;6458;42.710;23.192;2022-10-10T02:21:27;23.10;;;16.50;;
12788;SDS011;6458;42.710;23.192;2022-10-10T02:23:55;22.13;;;17.90;;
12788;SDS011;6458;42.710;23.192;2022-10-10T02:26:24;18.27;;;15.93;;
12788;SDS011;6458;42.710;23.192;2022-10-10T02:28:52;20.87;;;16.73;;
12788;SDS011;6458;42.710;23.192;2022-10-10T02:31:20;20.13;;;16.83;;
12788;SDS011;6458;42.710;23.192;2022-10-10T02:33:52;22.83;;;16.03;;
12788;SDS011;6458;42.710;23.192;2022-10-10T02:36:21;19.20;;;16.57;;
12788;SDS011;6458;42.710;23.192;2022-10-10T02:38:49;24.43;;;17.53;;
12788;SDS011;6458;42.710;23.192;2022-10-10T02:41:17;23.63;;;18.20;;
12788;SDS011;6458;42.710;23.192;2022-10-10T02:43:45;21.77;;;17.53;;
12788;SDS011;6458;42.710;23.192;2022-10-10T02:46:12;22.87;;;17.60;;
12788;SDS011;6458;42.710;23.192;2022-10-10T02:48:39;22.40;;;17.77;;
12788;SDS011;6458;42.710;23.192;2022-10-10T02:51:08;21.40;;;16.83;;
12788;SDS011;6458;42.710;23.192;2022-10-10T02:53:35;25.40;;;16.50;;
12788;SDS011;6458;42.710;23.192;2022-10-10T02:56:02;22.93;;;17.33;;
12788;SDS011;6458;42.710;23.192;2022-10-10T02:58:29;21.60;;;16.23;;
12788;SDS011;6458;42.710;23.192;2022-10-10T03:00:55;23.40;;;17.67;;
12788;SDS011;6458;42.710;23.192;2022-10-10T03:03:22;26.70;;;17.97;;
12788;SDS011;6458;42.710;23.192;2022-10-10T03:05:49;25.40;;;18.67;;
12788;SDS011;6458;42.710;23.192;2022-10-10T03:08:18;26.37;;;18.93;;
12788;SDS011;6458;42.710;23.192;2022-10-10T03:10:53;28.37;;;18.63;;
12788;SDS011;6458;42.710;23.192;2022-10-10T03:13:20;26.00;;;19.60;;
12788;SDS011;6458;42.710;23.192;2022-10-10T03:15:46;27.97;;;19.97;;
12788;SDS011;6458;42.710;23.192;2022-10-10T03:18:13;27.77;;;21.60;;
12788;SDS011;6458;42.710;23.192;2022-10-10T03:20:40;24.87;;;18.70;;
12788;SDS011;6458;42.710;23.192;2022-10-10T03:23:06;32.03;;;21.33;;
12788;SDS011;6458;42.710;23.192;2022-10-10T03:25:37;26.60;;;20.53;;
12788;SDS011;6458;42.710;23.192;2022-10-10T03:28:05;31.10;;;20.90;;
12788;SDS011;6458;42.710;23.192;2022-10-10T03:30:31;29.30;;;20.50;;
12788;SDS011;6458;42.710;23.192;2022-10-10T03:32:58;26.50;;;20.00;;
12788;SDS011;6458;42.710;23.192;2022-10-10T03:35:25;25.73;;;19.73;;
12788;SDS011;6458;42.710;23.192;2022-10-10T03:37:52;26.73;;;20.13;;
12788;SDS011;6458;42.710;23.192;2022-10-10T03:40:19;24.17;;;19.63;;
12788;SDS011;6458;42.710;23.192;2022-10-10T03:42:47;25.93;;;19.17;;
12788;SDS011;6458;42.710;23.192;2022-10-10T03:45:14;28.33;;;19.13;;
12788;SDS011;6458;42.710;23.192;2022-10-10T03:47:40;24.67;;;19.47;;
12788;SDS011;6458;42.710;23.192;2022-10-10T03:50:07;24.53;;;18.90;;
12788;SDS011;6458;42.710;23.192;2022-10-10T03:52:34;24.70;;;20.10;;
12788;SDS011;6458;42.710;23.192;2022-10-10T03:55:01;23.80;;;18.50;;
12788;SDS011;6458;42.710;23.192;2022-10-10T03:57:27;28.40;;;19.77;;
12788;SDS011;6458;42.710;23.192;2022-10-10T03:59:56;35.47;;;20.60;;
12788;SDS011;6458;42.710;23.192;2022-10-10T04:02:22;28.60;;;21.43;;
12788;SDS011;6458;42.710;23.192;2022-10-10T04:04:49;26.67;;;19.93;;
12788;SDS011;6458;42.710;23.192;2022-10-10T04:07:16;27.40;;;20.17;;
12788;SDS011;6458;42.710;23.192;2022-10-10T04:09:42;25.33;;;19.40;;
12788;SDS011;6458;42.710;23.192;2022-10-10T04:12:09;23.47;;;18.73;;
12788;SDS011;6458;42.710;23.192;2022-10-10T04:14:35;29.10;;;22.10;;
12788;SDS011;6458;42.710;23.192;2022-10-10T04:17:04;23.30;;;18.37;;
12788;SDS011;6458;42.710;23.192;2022-10-10T04:19:30;30.57;;;18.53;;
12788;SDS011;6458;42.710;23.192;2022-10-10T04:21:57;27.80;;;19.30;;
12788;SDS011;6458;42.710;23.192;2022-10-10T04:24:24;27.83;;;20.03;;
12788;SDS011;6458;42.710;23.192;2022-10-10T04:26:50;29.97;;;20.97;;
12788;SDS011;6458;42.710;23.192;2022-10-10T04:29:17;27.40;;;20.43;;
12788;SDS011;6458;42.710;23.192;2022-10-10T04:31:44;28.43;;;20.43;;
12788;SDS011;6458;42.710;23.192;2022-10-10T04:34:12;23.37;;;18.90;;
12788;SDS011;6458;42.710;23.192;2022-10-10T04:36:39;28.47;;;20.07;;
12788;SDS011;6458;42.710;23.192;2022-10-10T04:39:05;30.03;;;20.93;;
12788;SDS011;6458;42.710;23.192;2022-10-10T04:41:33;27.47;;;19.93;;
12788;SDS011;6458;42.710;23.192;2022-10-10T04:44:00;24.80;;;19.40;;
12788;SDS011;6458;42.710;23.192;2022-10-10T04:46:27;25.33;;;18.67;;
12788;SDS011;6458;42.710;23.192;2022-10-10T04:48:53;21.87;;;17.50;;
12788;SDS011;6458;42.710;23.192;2022-10-10T04:51:21;26.73;;;19.63;;
12788;SDS011;6458;42.710;23.192;2022-10-10T04:53:48;25.83;;;18.40;;
12788;SDS011;6458;42.710;23.192;2022-10-10T04:56:15;32.17;;;20.70;;
12788;SDS011;6458;42.710;23.192;2022-10-10T04:58:42;37.17;;;22.47;;
12788;SDS011;6458;42.710;23.192;2022-10-10T05:01:08;32.27;;;21.73;;
12788;SDS011;6458;42.710;23.192;2022-10-10T05:03:36;31.07;;;21.33;;
12788;SDS011;6458;42.710;23.192;2022-10-10T05:06:02;30.20;;;22.00;;
12788;SDS011;6458;42.710;23.192;2022-10-10T05:08:30;27.63;;;22.70;;
12788;SDS011;6458;42.710;23.192;2022-10-10T05:10:57;27.60;;;19.63;;
12788;SDS011;6458;42.710;23.192;2022-10-10T05:13:24;27.97;;;21.60;;
12788;SDS011;6458;42.710;23.192;2022-10-10T05:15:50;24.50;;;19.73;;
12788;SDS011;6458;42.710;23.192;2022-10-10T05:18:17;24.83;;;20.03;;
12788;SDS011;6458;42.710;23.192;2022-10-10T05:20:44;26.13;;;19.83;;
12788;SDS011;6458;42.710;23.192;2022-10-10T05:23:12;24.93;;;19.70;;
12788;SDS011;6458;42.710;23.192;2022-10-10T05:25:41;24.37;;;19.90;;
12788;SDS011;6458;42.710;23.192;2022-10-10T05:28:08;21.27;;;18.10;;
12788;SDS011;6458;42.710;23.192;2022-10-10T05:30:35;21.80;;;19.03;;
12788;SDS011;6458;42.710;23.192;2022-10-10T05:33:01;25.23;;;18.83;;
12788;SDS011;6458;42.710;23.192;2022-10-10T05:35:28;23.40;;;18.87;;
12788;SDS011;6458;42.710;23.192;2022-10-10T05:37:54;23.90;;;18.63;;
12788;SDS011;6458;42.710;23.192;2022-10-10T05:40:21;21.53;;;18.63;;
12788;SDS011;6458;42.710;23.192;2022-10-10T05:42:49;24.67;;;19.43;;
12788;SDS011;6458;42.710;23.192;2022-10-10T05:45:16;21.77;;;18.10;;
12788;SDS011;6458;42.710;23.192;2022-10-10T05:47:43;23.27;;;19.43;;
12788;SDS011;6458;42.710;23.192;2022-10-10T05:50:11;19.90;;;17.63;;
12788;SDS011;6458;42.710;23.192;2022-10-10T05:52:42;22.00;;;17.10;;
12788;SDS011;6458;42.710;23.192;2022-10-10T05:55:09;17.93;;;16.03;;
12788;SDS011;6458;42.710;23.192;2022-10-10T05:57:36;18.70;;;16.17;;
12788;SDS011;6458;42.710;23.192;2022-10-10T06:00:04;20.67;;;17.43;;
12788;SDS011;6458;42.710;23.192;2022-10-10T06:02:31;20.30;;;16.70;;
12788;SDS011;6458;42.710;23.192;2022-10-10T06:04:58;20.90;;;18.20;;
12788;SDS011;6458;42.710;23.192;2022-10-10T06:07:24;18.93;;;16.33;;
12788;SDS011;6458;42.710;23.192;2022-10-10T06:09:51;20.83;;;16.53;;
12788;SDS011;6458;42.710;23.192;2022-10-10T06:12:17;20.07;;;17.10;;
12788;SDS011;6458;42.710;23.192;2022-10-10T06:14:44;17.57;;;15.83;;
12788;SDS011;6458;42.710;23.192;2022-10-10T06:17:12;19.93;;;16.53;;
12788;SDS011;6458;42.710;23.192;2022-10-10T06:19:39;18.53;;;16.43;;
12788;SDS011;6458;42.710;23.192;2022-10-10T06:22:05;20.13;;;16.53;;
12788;SDS011;6458;42.710;23.192;2022-10-10T06:24:32;19.27;;;17.30;;
12788;SDS011;6458;42.710;23.192;2022-10-10T06:26:58;24.23;;;18.40;;
12788;SDS011;6458;42.710;23.192;2022-10-10T06:29:25;22.37;;;18.23;;
12788;SDS011;6458;42.710;23.192;2022-10-10T06:31:52;23.70;;;19.17;;
12788;SDS011;6458;42.710;23.192;2022-10-10T06:34:20;27.73;;;21.60;;
12788;SDS011;6458;42.710;23.192;2022-10-10T06:36:47;25.30;;;20.97;;
12788;SDS011;6458;42.710;23.192;2022-10-10T06:39:14;27.17;;;21.77;;
12788;SDS011;6458;42.710;23.192;2022-10-10T06:41:41;23.47;;;19.93;;
12788;SDS011;6458;42.710;23.192;2022-10-10T06:44:08;26.80;;;22.00;;
12788;SDS011;6458;42.710;23.192;2022-10-10T06:46:34;30.30;;;23.30;;
12788;SDS011;6458;42.710;23.192;2022-10-10T06:49:02;31.07;;;22.90;;
12788;SDS011;6458;42.710;23.192;2022-10-10T06:51:30;32.27;;;22.73;;
12788;SDS011;6458;42.710;23.192;2022-10-10T06:53:57;32.33;;;22.50;;
12788;SDS011;6458;42.710;23.192;2022-10-10T06:56:24;31.33;;;23.17;;
12788;SDS011;6458;42.710;23.192;2022-10-10T06:58:51;33.17;;;23.53;;
12788;SDS011;6458;42.710;23.192;2022-10-10T07:01:19;31.13;;;23.57;;
12788;SDS011;6458;42.710;23.192;2022-10-10T07:03:46;32.50;;;23.23;;
12788;SDS011;6458;42.710;23.192;2022-10-10T07:06:13;32.50;;;24.63;;
12788;SDS011;6458;42.710;23.192;2022-10-10T07:08:41;32.50;;;24.47;;
12788;SDS011;6458;42.710;23.192;2022-10-10T07:11:07;30.17;;;22.90;;
12788;SDS011;6458;42.710;23.192;2022-10-10T07:13:34;30.37;;;22.50;;
12788;SDS011;6458;42.710;23.192;2022-10-10T07:16:01;29.33;;;22.00;;
12788;SDS011;6458;42.710;23.192;2022-10-10T07:18:28;28.83;;;20.80;;
12788;SDS011;6458;42.710;23.192;2022-10-10T07:20:55;23.70;;;20.47;;
12788;SDS011;6458;42.710;23.192;2022-10-10T07:23:22;22.73;;;19.43;;
12788;SDS011;6458;42.710;23.192;2022-10-10T07:25:50;23.97;;;19.07;;
12788;SDS011;6458;42.710;23.192;2022-10-10T07:28:17;21.13;;;18.07;;
12788;SDS011;6458;42.710;23.192;2022-10-10T07:30:44;24.60;;;19.40;;
12788;SDS011;6458;42.710;23.192;2022-10-10T07:33:11;24.87;;;19.13;;
12788;SDS011;6458;42.710;23.192;2022-10-10T07:35:38;27.77;;;19.73;;
12788;SDS011;6458;42.710;23.192;2022-10-10T07:38:05;23.57;;;19.40;;
12788;SDS011;6458;42.710;23.192;2022-10-10T07:40:32;24.03;;;19.23;;
12788;SDS011;6458;42.710;23.192;2022-10-10T07:43:00;24.77;;;19.00;;
12788;SDS011;6458;42.710;23.192;2022-10-10T07:45:27;24.87;;;19.57;;
12788;SDS011;6458;42.710;23.192;2022-10-10T07:47:53;25.63;;;19.73;;
12788;SDS011;6458;42.710;23.192;2022-10-10T07:50:20;27.37;;;18.67;;
12788;SDS011;6458;42.710;23.192;2022-10-10T07:52:49;23.53;;;18.43;;
12788;SDS011;6458;42.710;23.192;2022-10-10T07:55:15;26.77;;;19.83;;
12788;SDS011;6458;42.710;23.192;2022-10-10T07:57:42;23.33;;;18.27;;
12788;SDS011;6458;42.710;23.192;2022-10-10T08:00:11;25.63;;;18.97;;
12788;SDS011;6458;42.710;23.192;2022-10-10T08:02:37;25.53;;;19.50;;
12788;SDS011;6458;42.710;23.192;2022-10-10T08:05:04;30.03;;;20.00;;
12788;SDS011;6458;42.710;23.192;2022-10-10T08:07:31;30.93;;;21.43;;
12788;SDS011;6458;42.710;23.192;2022-10-10T08:09:58;28.03;;;20.83;;
12788;SDS011;6458;42.710;23.192;2022-10-10T08:12:26;28.67;;;21.93;;
12788;SDS011;6458;42.710;23.192;2022-10-10T08:14:53;26.60;;;21.13;;
12788;SDS011;6458;42.710;23.192;2022-10-10T08:17:21;25.57;;;20.83;;
12788;SDS011;6458;42.710;23.192;2022-10-10T08:19:47;27.13;;;21.00;;
12788;SDS011;6458;42.710;23.192;2022-10-10T08:22:14;26.77;;;21.87;;
12788;SDS011;6458;42.710;23.192;2022-10-10T08:24:41;28.63;;;21.57;;
12788;SDS011;6458;42.710;23.192;2022-10-10T08:27:07;26.03;;;21.17;;
12788;SDS011;6458;42.710;23.192;2022-10-10T08:29:34;26.47;;;19.60;;
12788;SDS011;6458;42.710;23.192;2022-10-10T08:32:01;25.40;;;20.47;;
12788;SDS011;6458;42.710;23.192;2022-10-10T08:34:29;24.40;;;19.50;;
12788;SDS011;6458;42.710;23.192;2022-10-10T08:36:56;26.57;;;20.67;;
12788;SDS011;6458;42.710;23.192;2022-10-10T08:39:22;27.63;;;21.60;;
12788;SDS011;6458;42.710;23.192;2022-10-10T08:41:50;23.37;;;20.27;;
12788;SDS011;6458;42.710;23.192;2022-10-10T08:44:18;25.80;;;20.00;;
12788;SDS011;6458;42.710;23.192;2022-10-10T08:46:47;26.13;;;20.50;;
12788;SDS011;6458;42.710;23.192;2022-10-10T08:49:18;26.73;;;21.17;;
12788;SDS011;6458;42.710;23.192;2022-10-10T08:51:49;26.63;;;21.53;;
12788;SDS011;6458;42.710;23.192;2022-10-10T08:54:16;28.00;;;19.40;;
12788;SDS011;6458;42.710;23.192;2022-10-10T08:56:44;25.57;;;19.13;;
12788;SDS011;6458;42.710;23.192;2022-10-10T08:59:13;24.57;;;20.63;;
12788;SDS011;6458;42.710;23.192;2022-10-10T09:01:40;22.17;;;19.73;;
12788;SDS011;6458;42.710;23.192;2022-10-10T09:04:12;26.67;;;19.43;;
12788;SDS011;6458;42.710;23.192;2022-10-10T09:06:43;24.63;;;18.33;;
12788;SDS011;6458;42.710;23.192;2022-10-10T09:09:19;19.97;;;17.87;;
12788;SDS011;6458;42.710;23.192;2022-10-10T09:11:54;21.50;;;17.40;;
12788;SDS011;6458;42.710;23.192;2022-10-10T09:14:27;23.30;;;17.00;;
12788;SDS011;6458;42.710;23.192;2022-10-10T09:16:59;20.27;;;17.30;;
12788;SDS011;6458;42.710;23.192;2022-10-10T09:19:30;22.53;;;17.93;;
12788;SDS011;6458;42.710;23.192;2022-10-10T09:22:02;18.93;;;15.37;;
12788;SDS011;6458;42.710;23.192;2022-10-10T09:24:32;18.33;;;15.57;;
12788;SDS011;6458;42.710;23.192;2022-10-10T09:27:01;22.47;;;17.57;;
12788;SDS011;6458;42.710;23.192;2022-10-10T09:29:30;18.47;;;15.53;;
12788;SDS011;6458;42.710;23.192;2022-10-10T09:31:59;19.43;;;14.33;;
12788;SDS011;6458;42.710;23.192;2022-10-10T09:34:30;17.13;;;13.63;;
12788;SDS011;6458;42.710;23.192;2022-10-10T09:36:57;15.67;;;13.03;;
12788;SDS011;6458;42.710;23.192;2022-10-10T09:39:29;16.53;;;14.50;;
12788;SDS011;6458;42.710;23.192;2022-10-10T09:41:59;15.37;;;12.77;;
12788;SDS011;6458;42.710;23.192;2022-10-10T09:44:26;13.77;;;12.27;;
12788;SDS011;6458;42.710;23.192;2022-10-10T09:46:53;15.97;;;13.10;;
12788;SDS011;6458;42.710;23.192;2022-10-10T09:49:20;18.17;;;13.60;;
12788;SDS011;6458;42.710;23.192;2022-10-10T09:51:47;14.50;;;13.10;;
12788;SDS011;6458;42.710;23.192;2022-10-10T09:54:15;14.57;;;11.57;;
12788;SDS011;6458;42.710;23.192;2022-10-10T09:56:43;17.43;;;12.27;;
12788;SDS011;6458;42.710;23.192;2022-10-10T10:02:01;15.03;;;12.47;;
12788;SDS011;6458;42.710;23.192;2022-10-10T10:04:30;13.37;;;11.53;;
12788;SDS011;6458;42.710;23.192;2022-10-10T10:07:03;13.57;;;11.10;;
12788;SDS011;6458;42.710;23.192;2022-10-10T10:09:30;11.83;;;10.63;;
12788;SDS011;6458;42.710;23.192;2022-10-10T10:11:57;15.50;;;12.83;;
12788;SDS011;6458;42.710;23.192;2022-10-10T10:14:24;11.07;;;9.90;;
12788;SDS011;6458;42.710;23.192;2022-10-10T10:16:51;7.63;;;6.93;;
12788;SDS011;6458;42.710;23.192;2022-10-10T10:19:31;7.87;;;7.17;;
12788;SDS011;6458;42.710;23.192;2022-10-10T10:21:58;8.10;;;7.40;;
12788;SDS011;6458;42.710;23.192;2022-10-10T10:24:28;8.00;;;7.27;;
12788;SDS011;6458;42.710;23.192;2022-10-10T10:26:56;7.40;;;6.80;;
12788;SDS011;6458;42.710;23.192;2022-10-10T10:29:33;7.53;;;6.63;;
12788;SDS011;6458;42.710;23.192;2022-10-10T10:32:02;7.43;;;6.87;;
12788;SDS011;6458;42.710;23.192;2022-10-10T10:34:35;7.37;;;6.67;;
12788;SDS011;6458;42.710;23.192;2022-10-10T10:37:06;8.27;;;7.50;;
12788;SDS011;6458;42.710;23.192;2022-10-10T10:39:39;7.80;;;7.20;;
12788;SDS011;6458;42.710;23.192;2022-10-10T10:42:11;8.03;;;7.33;;
12788;SDS011;6458;42.710;23.192;2022-10-10T10:44:41;9.60;;;8.00;;
12788;SDS011;6458;42.710;23.192;2022-10-10T10:47:18;8.37;;;6.60;;
12788;SDS011;6458;42.710;23.192;2022-10-10T10:49:49;7.30;;;6.70;;
12788;SDS011;6458;42.710;23.192;2022-10-10T10:52:29;9.03;;;6.80;;
12788;SDS011;6458;42.710;23.192;2022-10-10T10:55:08;7.77;;;7.17;;
12788;SDS011;6458;42.710;23.192;2022-10-10T10:57:41;7.20;;;6.70;;
12788;SDS011;6458;42.710;23.192;2022-10-10T11:00:11;7.63;;;6.97;;
12788;SDS011;6458;42.710;23.192;2022-10-10T11:02:39;8.10;;;7.30;;
12788;SDS011;6458;42.710;23.192;2022-10-10T11:05:18;8.07;;;7.37;;
12788;SDS011;6458;42.710;23.192;2022-10-10T11:07:52;7.47;;;6.87;;
12788;SDS011;6458;42.710;23.192;2022-10-10T11:10:26;7.37;;;6.77;;
12788;SDS011;6458;42.710;23.192;2022-10-10T11:12:57;6.90;;;6.33;;
12788;SDS011;6458;42.710;23.192;2022-10-10T11:15:28;7.73;;;6.73;;
12788;SDS011;6458;42.710;23.192;2022-10-10T11:17:58;7.50;;;6.60;;
12788;SDS011;6458;42.710;23.192;2022-10-10T11:20:29;6.97;;;6.40;;
12788;SDS011;6458;42.710;23.192;2022-10-10T11:22:59;7.93;;;6.70;;
12788;SDS011;6458;42.710;23.192;2022-10-10T11:25:28;7.30;;;6.50;;
12788;SDS011;6458;42.710;23.192;2022-10-10T11:27:56;7.97;;;7.17;;
12788;SDS011;6458;42.710;23.192;2022-10-10T11:30:25;9.00;;;7.30;;
12788;SDS011;6458;42.710;23.192;2022-10-10T11:32:54;9.50;;;7.23;;
12788;SDS011;6458;42.710;23.192;2022-10-10T11:38:12;7.60;;;6.80;;
12788;SDS011;6458;42.710;23.192;2022-10-10T11:40:53;6.87;;;6.37;;
12788;SDS011;6458;42.710;23.192;2022-10-10T11:43:23;6.90;;;6.30;;
12788;SDS011;6458;42.710;23.192;2022-10-10T11:45:56;6.73;;;6.17;;
12788;SDS011;6458;42.710;23.192;2022-10-10T11:48:26;9.03;;;6.63;;
12788;SDS011;6458;42.710;23.192;2022-10-10T11:50:56;9.20;;;6.90;;
12788;SDS011;6458;42.710;23.192;2022-10-10T11:53:27;7.03;;;6.20;;
12788;SDS011;6458;42.710;23.192;2022-10-10T11:55:56;8.13;;;6.10;;
12788;SDS011;6458;42.710;23.192;2022-10-10T11:58:29;6.73;;;6.03;;
12788;SDS011;6458;42.710;23.192;2022-10-10T12:01:00;6.53;;;5.93;;
12788;SDS011;6458;42.710;23.192;2022-10-10T12:03:29;6.97;;;6.40;;
12788;SDS011;6458;42.710;23.192;2022-10-10T12:05:58;7.80;;;7.00;;
12788;SDS011;6458;42.710;23.192;2022-10-10T12:08:30;6.63;;;6.07;;
12788;SDS011;6458;42.710;23.192;2022-10-10T12:10:59;6.50;;;6.00;;
12788;SDS011;6458;42.710;23.192;2022-10-10T12:13:31;7.30;;;6.70;;
12788;SDS011;6458;42.710;23.192;2022-10-10T12:16:00;7.60;;;6.90;;
12788;SDS011;6458;42.710;23.192;2022-10-10T12:18:29;7.43;;;6.90;;
12788;SDS011;6458;42.710;23.192;2022-10-10T12:21:04;8.03;;;6.97;;
12788;SDS011;6458;42.710;23.192;2022-10-10T12:23:33;6.67;;;6.07;;
12788;SDS011;6458;42.710;23.192;2022-10-10T12:26:00;6.33;;;5.83;;
12788;SDS011;6458;42.710;23.192;2022-10-10T12:28:28;6.63;;;6.10;;
12788;SDS011;6458;42.710;23.192;2022-10-10T12:33:59;6.30;;;5.90;;
12788;SDS011;6458;42.710;23.192;2022-10-10T12:39:35;10.30;;;6.80;;
12788;SDS011;6458;42.710;23.192;2022-10-10T12:42:02;7.67;;;6.90;;
12788;SDS011;6458;42.710;23.192;2022-10-10T12:49:55;7.40;;;6.70;;
12788;SDS011;6458;42.710;23.192;2022-10-10T12:52:22;6.77;;;6.23;;
12788;SDS011;6458;42.710;23.192;2022-10-10T12:54:52;6.67;;;6.10;;
12788;SDS011;6458;42.710;23.192;2022-10-10T12:57:21;9.03;;;6.70;;
12788;SDS011;6458;42.710;23.192;2022-10-10T12:59:51;7.07;;;6.40;;
12788;SDS011;6458;42.710;23.192;2022-10-10T13:02:19;7.13;;;6.50;;
12788;SDS011;6458;42.710;23.192;2022-10-10T13:04:47;6.60;;;6.00;;
12788;SDS011;6458;42.710;23.192;2022-10-10T13:07:15;6.60;;;6.00;;
12788;SDS011;6458;42.710;23.192;2022-10-10T13:09:42;6.60;;;6.00;;
12788;SDS011;6458;42.710;23.192;2022-10-10T13:12:20;6.87;;;6.27;;
12788;SDS011;6458;42.710;23.192;2022-10-10T13:14:47;6.20;;;5.70;;
12788;SDS011;6458;42.710;23.192;2022-10-10T13:17:20;7.10;;;6.60;;
12788;SDS011;6458;42.710;23.192;2022-10-10T13:19:47;7.03;;;6.43;;
12788;SDS011;6458;42.710;23.192;2022-10-10T13:22:14;6.30;;;5.80;;
12788;SDS011;6458;42.710;23.192;2022-10-10T13:24:41;6.80;;;6.13;;
12788;SDS011;6458;42.710;23.192;2022-10-10T13:27:11;8.50;;;5.77;;
12788;SDS011;6458;42.710;23.192;2022-10-10T13:29:42;6.80;;;6.27;;
12788;SDS011;6458;42.710;23.192;2022-10-10T13:32:11;7.47;;;5.93;;
12788;SDS011;6458;42.710;23.192;2022-10-10T13:34:40;6.70;;;5.67;;
12788;SDS011;6458;42.710;23.192;2022-10-10T13:37:10;6.10;;;5.70;;
12788;SDS011;6458;42.710;23.192;2022-10-10T13:39:38;6.13;;;5.73;;
12788;SDS011;6458;42.710;23.192;2022-10-10T13:42:05;7.60;;;6.00;;
12788;SDS011;6458;42.710;23.192;2022-10-10T13:44:45;6.80;;;5.40;;
12788;SDS011;6458;42.710;23.192;2022-10-10T13:49:58;6.87;;;6.23;;
12788;SDS011;6458;42.710;23.192;2022-10-10T13:52:25;6.33;;;5.93;;
12788;SDS011;6458;42.710;23.192;2022-10-10T13:54:51;6.60;;;6.10;;
12788;SDS011;6458;42.710;23.192;2022-10-10T13:57:19;6.13;;;5.67;;
12788;SDS011;6458;42.710;23.192;2022-10-10T13:59:48;6.20;;;5.70;;
12788;SDS011;6458;42.710;23.192;2022-10-10T14:02:16;6.23;;;5.67;;
12788;SDS011;6458;42.710;23.192;2022-10-10T14:04:44;7.07;;;6.37;;
12788;SDS011;6458;42.710;23.192;2022-10-10T14:07:14;7.07;;;6.50;;
12788;SDS011;6458;42.710;23.192;2022-10-10T14:09:42;6.47;;;5.97;;
12788;SDS011;6458;42.710;23.192;2022-10-10T14:12:14;6.00;;;5.50;;
12788;SDS011;6458;42.710;23.192;2022-10-10T14:14:42;7.33;;;6.17;;
12788;SDS011;6458;42.710;23.192;2022-10-10T14:17:10;6.37;;;5.87;;
12788;SDS011;6458;42.710;23.192;2022-10-10T14:19:37;7.53;;;6.10;;
12788;SDS011;6458;42.710;23.192;2022-10-10T14:22:03;8.37;;;6.17;;
12788;SDS011;6458;42.710;23.192;2022-10-10T14:24:31;7.20;;;6.60;;
12788;SDS011;6458;42.710;23.192;2022-10-10T14:27:03;6.77;;;6.17;;
12788;SDS011;6458;42.710;23.192;2022-10-10T14:29:30;6.93;;;6.30;;
12788;SDS011;6458;42.710;23.192;2022-10-10T14:31:57;6.27;;;5.77;;
12788;SDS011;6458;42.710;23.192;2022-10-10T14:34:23;6.40;;;5.90;;
12788;SDS011;6458;42.710;23.192;2022-10-10T14:36:50;6.30;;;5.77;;
12788;SDS011;6458;42.710;23.192;2022-10-10T14:39:17;14.23;;;6.40;;
12788;SDS011;6458;42.710;23.192;2022-10-10T14:41:45;7.53;;;6.77;;
12788;SDS011;6458;42.710;23.192;2022-10-10T14:44:12;7.13;;;6.43;;
12788;SDS011;6458;42.710;23.192;2022-10-10T14:46:39;7.27;;;5.83;;
12788;SDS011;6458;42.710;23.192;2022-10-10T14:49:06;6.70;;;6.10;;
12788;SDS011;6458;42.710;23.192;2022-10-10T14:51:40;7.63;;;6.87;;
12788;SDS011;6458;42.710;23.192;2022-10-10T14:54:06;7.90;;;7.30;;
12788;SDS011;6458;42.710;23.192;2022-10-10T14:56:33;7.20;;;6.70;;
12788;SDS011;6458;42.710;23.192;2022-10-10T14:59:01;7.23;;;6.50;;